Airfield :
LOGIN :

Register | Disclaimer

   EN    FR    IT 

 










Legend :    VFR   Marginal VFR   IFR   Intensive IFR   Very Intensive IFR
Visi :
Ceiling :
>= 8 km
>= 3000ft
5 to 8 km
1000 to 3000 ft
1500m to 5 km
500 to 1000 ft
800 to 1500m
200 to 500 ft
< 800m
< 200 ft
Symbols :   Thunderstorms  Fog  Heavy snow  Heavy precipitations  Wind > 20 kt
SIGMETs :     Misc.  Thunderstorms  Icing  Turbulence  Mountain Waves  Volcanic Ashes







- Airport Elevation : 466 ft


LHPA - Pápa

CURRENT METAR :
  • 231845Z 03004KT CAVOK 25/18 Q1023 NOSIG RMK BLU

EXPIRED METARs :
  • 231815Z 01006KT CAVOK 25/18 Q1022 NOSIG RMK BLU
  • 231745Z 02004KT CAVOK 26/18 Q1022 NOSIG RMK BLU
  • 231715Z 02006KT 350V050 CAVOK 27/18 Q1022 NOSIG RMK BLU
  • 231645Z 01006KT 340V040 CAVOK 28/18 Q1022 NOSIG RMK BLU
  • 231615Z 01006KT 350V050 9999 FEW040TCU SCT200 28/18 Q1022 NOSIG RMK BLU

TAF TAF LHPA
Valid from the 23 at 18:00 until the 24 at 18:00 UTC


231715Z 2318/2418 02006KT CAVOK
BECMG 2318/2321 VRB03KT
BECMG 2409/2412 09006KT
PROB30
TEMPO 2412/2418 VRB16G26KT 6000 SHRA TSRA SCT040CB BKN050TCU
No reported NOTAMs for that airfield.



MET'MAP, your aeronautical weather chart ! - Copyright ORBIFLY December 2007 - Disclaimer

ORBIFLY MET'MAP TEAM :

Programming & Development : Alexandra Zaïnal
Concept & Development : Baudouin d'Aumeries
Co-Development & Prog : Marc-Olivier Méhu
Technical & hardware support : Manuel Goepfert

Contact : metmap@orbifly.com




SOURCES & CREDITS :

   NOAA